createdAt,value
2018-10-16T00:06:43.002Z,13.67
2018-10-16T00:09:11.499Z,14.33
2018-10-16T00:29:43.680Z,13.53
2018-10-16T00:34:47.393Z,17.37
2018-10-16T00:37:23.564Z,15.10
2018-10-16T00:40:05.845Z,13.83
2018-10-16T00:42:35.210Z,13.43
2018-10-16T00:45:05.652Z,12.83
2018-10-16T00:49:13.066Z,12.97
2018-10-16T00:51:41.790Z,12.83
2018-10-16T00:54:13.542Z,17.47
2018-10-16T00:56:43.052Z,16.83
2018-10-16T01:02:06.870Z,14.50
2018-10-16T01:07:32.667Z,13.67
2018-10-16T01:10:01.193Z,14.13
2018-10-16T01:12:30.519Z,14.47
2018-10-16T01:15:12.837Z,15.57
2018-10-16T01:22:52.985Z,16.30
2018-10-16T01:25:21.746Z,16.70
2018-10-16T01:27:50.232Z,21.73
2018-10-16T01:30:19.650Z,21.47
2018-10-16T01:32:48.405Z,28.47
2018-10-16T01:44:01.394Z,27.23
2018-10-16T01:46:30.819Z,26.77
2018-10-16T01:51:59.148Z,25.70
2018-10-16T01:54:36.051Z,25.17
2018-10-16T01:57:36.213Z,26.90
2018-10-16T02:00:05.177Z,28.63
2018-10-16T02:11:22.181Z,18.23
2018-10-16T02:13:51.045Z,19.77
2018-10-16T02:16:19.498Z,16.83
2018-10-16T02:23:11.023Z,18.50
2018-10-16T02:38:44.211Z,14.90
2018-10-16T02:41:12.693Z,15.80
2018-10-16T03:07:57.559Z,14.93
2018-10-16T03:10:25.965Z,16.50
2018-10-16T03:12:54.444Z,16.03
2018-10-16T03:15:23.130Z,16.37
2018-10-16T03:21:55.283Z,17.93
2018-10-16T03:24:25.515Z,20.37
2018-10-16T03:26:53.949Z,20.30
2018-10-16T03:29:22.352Z,21.07
2018-10-16T03:31:50.623Z,20.43
2018-10-16T03:34:18.941Z,20.13
2018-10-16T03:36:47.397Z,21.97
2018-10-16T03:41:48.845Z,23.33
2018-10-16T03:44:17.311Z,23.63
2018-10-16T03:46:45.917Z,23.93
2018-10-16T03:49:14.616Z,24.60
2018-10-16T03:51:43.196Z,27.80
2018-10-16T03:54:11.805Z,29.27
2018-10-16T03:56:40.332Z,27.77
2018-10-16T03:59:09.602Z,27.50
2018-10-16T04:01:37.837Z,28.40
2018-10-16T04:04:06.173Z,30.80
2018-10-16T04:06:34.508Z,36.53
2018-10-16T04:09:02.850Z,41.13
2018-10-16T04:11:31.647Z,36.40
2018-10-16T04:14:00.968Z,32.93
2018-10-16T04:16:29.522Z,29.43
2018-10-16T04:18:57.868Z,29.10
2018-10-16T04:21:30.659Z,29.07
2018-10-16T04:23:59.033Z,26.83
2018-10-16T04:26:30.381Z,23.67
2018-10-16T04:28:58.876Z,20.73
2018-10-16T04:31:27.240Z,20.20
2018-10-16T04:36:45.759Z,18.33
2018-10-16T04:39:14.850Z,17.80
2018-10-16T04:41:43.843Z,17.20
2018-10-16T04:44:12.188Z,16.57
2018-10-16T04:46:40.625Z,16.97
2018-10-16T04:49:08.991Z,17.80
2018-10-16T04:51:37.277Z,19.60
2018-10-16T04:54:06.017Z,18.63
2018-10-16T04:56:34.595Z,18.30
2018-10-16T04:59:03.111Z,19.30
2018-10-16T05:19:42.980Z,18.10
2018-10-16T05:22:11.474Z,18.17
2018-10-16T05:24:39.981Z,17.30
2018-10-16T05:27:42.197Z,17.00
2018-10-16T05:33:02.918Z,17.47
2018-10-16T05:36:06.779Z,17.77
2018-10-16T05:41:27.756Z,16.43
2018-10-16T05:43:56.088Z,17.53
2018-10-16T05:46:24.328Z,18.77
2018-10-16T05:48:52.469Z,17.37
2018-10-16T05:51:20.656Z,17.07
2018-10-16T05:53:48.816Z,19.20
2018-10-16T05:56:17.210Z,18.17
2018-10-16T05:58:45.819Z,17.93
2018-10-16T06:01:13.988Z,17.60
2018-10-16T06:03:42.343Z,17.90
2018-10-16T06:06:10.521Z,18.10
2018-10-16T06:08:38.679Z,18.57
2018-10-16T06:11:06.941Z,16.47
2018-10-16T06:13:35.161Z,17.40
2018-10-16T06:16:03.439Z,18.90
2018-10-16T06:18:31.535Z,19.53
2018-10-16T06:20:59.759Z,19.50
2018-10-16T06:23:27.917Z,19.30
2018-10-16T06:25:56.108Z,19.67
2018-10-16T06:28:28.542Z,18.93
2018-10-16T06:30:56.744Z,18.73
2018-10-16T06:33:27.102Z,19.57
2018-10-16T06:35:55.354Z,21.20
2018-10-16T06:38:23.589Z,22.47
2018-10-16T06:40:51.959Z,25.17
2018-10-16T06:43:19.987Z,25.07
2018-10-16T06:45:48.284Z,28.40
2018-10-16T06:48:16.645Z,28.70
2018-10-16T06:50:44.807Z,28.13
2018-10-16T06:53:14.329Z,27.97
2018-10-16T06:55:42.549Z,29.93
2018-10-16T06:58:10.885Z,28.80
2018-10-16T07:00:39.111Z,27.10
2018-10-16T07:03:07.461Z,24.87
2018-10-16T07:05:35.686Z,25.07
2018-10-16T07:08:03.951Z,24.63
2018-10-16T07:10:32.193Z,23.67
2018-10-16T07:13:00.379Z,22.23
2018-10-16T07:15:28.554Z,22.10
2018-10-16T07:17:56.739Z,20.83
2018-10-16T07:20:24.919Z,20.63
2018-10-16T07:22:53.273Z,19.90
2018-10-16T07:25:21.609Z,20.53
2018-10-16T07:27:49.796Z,20.27
2018-10-16T07:30:18.079Z,21.07
2018-10-16T07:32:46.282Z,21.73
2018-10-16T07:35:14.412Z,22.93
2018-10-16T07:37:42.606Z,20.87
2018-10-16T07:40:12.543Z,20.43
2018-10-16T07:42:41.127Z,20.97
2018-10-16T07:45:09.449Z,22.67
2018-10-16T07:47:37.995Z,20.83
2018-10-16T07:50:09.073Z,21.97
2018-10-16T07:52:38.308Z,21.77
2018-10-16T07:55:08.785Z,22.77
2018-10-16T07:57:36.965Z,23.57
2018-10-16T08:01:24.503Z,22.60
2018-10-16T08:03:52.779Z,23.73
2018-10-16T08:06:20.965Z,21.93
2018-10-16T08:08:49.145Z,21.33
2018-10-16T08:11:17.473Z,24.03
2018-10-16T08:13:45.626Z,22.60
2018-10-16T08:16:13.905Z,24.10
2018-10-16T08:18:42.199Z,23.27
2018-10-16T08:21:10.433Z,24.43
2018-10-16T08:23:38.585Z,24.47
2018-10-16T08:26:07.670Z,24.00
2018-10-16T08:28:36.162Z,24.83
2018-10-16T08:31:04.611Z,25.47
2018-10-16T08:33:32.787Z,27.23
2018-10-16T08:36:01.106Z,27.77
2018-10-16T08:38:42.558Z,30.57
2018-10-16T08:41:12.078Z,30.67
2018-10-16T08:43:52.328Z,29.20
2018-10-16T08:46:31.969Z,31.13
2018-10-16T08:49:11.525Z,29.90
2018-10-16T08:51:43.494Z,29.30
2018-10-16T08:54:11.730Z,31.43
2018-10-16T08:56:39.961Z,31.13
2018-10-16T08:59:08.147Z,30.83
2018-10-16T09:01:36.467Z,28.73
2018-10-16T09:04:04.703Z,29.50
2018-10-16T09:06:33.555Z,29.53
2018-10-16T09:09:02.052Z,25.73
2018-10-16T09:11:30.230Z,23.37
2018-10-16T09:13:58.434Z,23.20
2018-10-16T09:16:26.560Z,23.03
2018-10-16T09:18:54.752Z,22.53
2018-10-16T09:21:22.946Z,24.27
2018-10-16T09:23:51.148Z,25.20
2018-10-16T09:26:19.488Z,27.03
2018-10-16T09:28:47.702Z,27.43
2018-10-16T09:31:15.858Z,30.03
2018-10-16T09:33:44.182Z,31.83
2018-10-16T09:36:12.351Z,31.53
2018-10-16T09:38:40.533Z,30.90
2018-10-16T09:41:08.835Z,28.67
2018-10-16T09:43:36.989Z,31.30
2018-10-16T09:46:05.629Z,34.07
2018-10-16T09:48:33.834Z,32.30
2018-10-16T09:51:01.971Z,31.00
2018-10-16T09:53:30.192Z,30.07
2018-10-16T09:55:58.483Z,29.20
2018-10-16T09:58:26.714Z,29.77
2018-10-16T10:01:00.271Z,28.27
2018-10-16T10:03:28.420Z,26.57
2018-10-16T10:05:56.797Z,24.60
2018-10-16T10:08:25.053Z,26.13
2018-10-16T10:10:53.200Z,26.37
2018-10-16T10:13:21.425Z,24.77
2018-10-16T10:15:49.587Z,25.50
2018-10-16T10:18:17.801Z,24.50
2018-10-16T10:20:46.039Z,24.60
2018-10-16T10:23:14.274Z,23.33
2018-10-16T10:25:42.427Z,23.27
2018-10-16T10:28:10.549Z,24.93
2018-10-16T10:30:38.763Z,23.33
2018-10-16T10:33:06.955Z,24.53
2018-10-16T10:35:35.168Z,25.20
2018-10-16T10:38:03.373Z,26.20
2018-10-16T10:40:31.567Z,25.67
2018-10-16T10:42:59.775Z,24.53
2018-10-16T10:45:27.943Z,25.80
2018-10-16T10:47:56.168Z,26.67
2018-10-16T10:50:24.531Z,25.93
2018-10-16T10:52:52.568Z,23.67
2018-10-16T10:55:20.884Z,26.67
2018-10-16T10:57:49.235Z,24.00
2018-10-16T11:00:17.449Z,24.70
2018-10-16T11:02:46.902Z,26.17
2018-10-16T11:05:15.181Z,24.97
2018-10-16T11:07:43.324Z,24.57
2018-10-16T11:10:12.670Z,25.53
2018-10-16T11:12:41.728Z,25.90
2018-10-16T11:15:09.986Z,25.37
2018-10-16T11:17:38.645Z,24.47
2018-10-16T11:20:08.271Z,24.97
2018-10-16T11:22:36.440Z,24.67
2018-10-16T11:25:05.783Z,25.47
2018-10-16T11:27:34.000Z,27.80
2018-10-16T11:30:02.220Z,39.50
2018-10-16T11:32:30.378Z,32.03
2018-10-16T11:35:00.540Z,37.63
2018-10-16T11:40:24.112Z,28.00
2018-10-16T11:42:54.874Z,26.70
2018-10-16T11:45:23.869Z,26.03
2018-10-16T11:48:00.966Z,26.57
2018-10-16T11:50:29.844Z,26.33
2018-10-16T11:52:58.463Z,26.00
2018-10-16T11:55:26.838Z,26.83
2018-10-16T11:57:55.322Z,24.77
2018-10-16T12:00:25.539Z,25.93
2018-10-16T12:02:55.050Z,25.63
2018-10-16T12:05:36.357Z,24.70
2018-10-16T12:08:05.098Z,24.53
2018-10-16T12:10:33.513Z,24.97
2018-10-16T12:13:01.960Z,24.87
2018-10-16T12:15:30.377Z,27.20
2018-10-16T12:18:11.002Z,27.30
2018-10-16T12:20:43.410Z,26.03
2018-10-16T12:23:12.143Z,26.10
2018-10-16T12:25:40.924Z,25.53
2018-10-16T12:28:09.373Z,28.20
2018-10-16T12:30:37.849Z,26.53
2018-10-16T12:33:19.745Z,25.90
2018-10-16T12:35:48.385Z,26.47
2018-10-16T12:38:17.021Z,26.07
2018-10-16T12:43:28.157Z,26.87
2018-10-16T12:46:01.599Z,27.63
2018-10-16T12:48:30.458Z,28.13
2018-10-16T12:50:59.031Z,27.03
2018-10-16T12:53:34.290Z,27.07
2018-10-16T12:56:02.832Z,26.17
2018-10-16T12:58:31.644Z,28.03
2018-10-16T13:03:37.348Z,28.50
2018-10-16T13:06:05.943Z,29.10
2018-10-16T13:08:40.328Z,26.57
2018-10-16T13:11:08.954Z,28.30
2018-10-16T13:13:37.596Z,27.83
2018-10-16T13:16:06.255Z,28.57
2018-10-16T13:18:34.832Z,28.40
2018-10-16T13:21:03.234Z,28.60
2018-10-16T13:23:31.827Z,30.10
2018-10-16T13:26:00.395Z,29.93
2018-10-16T13:28:28.673Z,29.83
2018-10-16T13:30:57.044Z,28.33
2018-10-16T13:33:25.771Z,28.87
2018-10-16T13:35:54.226Z,29.10
2018-10-16T13:38:22.738Z,28.73
2018-10-16T13:40:51.064Z,27.37
2018-10-16T13:43:19.610Z,27.07
2018-10-16T13:45:48.181Z,27.90
2018-10-16T13:48:16.649Z,26.90
2018-10-16T13:51:00.275Z,26.60
2018-10-16T13:53:28.824Z,27.63
2018-10-16T13:55:57.459Z,25.27
2018-10-16T13:58:32.932Z,25.77
2018-10-16T14:04:04.205Z,26.63
2018-10-16T14:06:32.954Z,26.33
2018-10-16T14:11:41.551Z,28.87
2018-10-16T14:14:16.712Z,27.70
2018-10-16T14:16:45.476Z,26.83
2018-10-16T14:19:14.090Z,26.37
2018-10-16T14:21:42.709Z,27.33
2018-10-16T14:24:17.604Z,26.83
2018-10-16T14:26:46.149Z,27.37
2018-10-16T14:29:14.527Z,28.57
2018-10-16T14:31:43.055Z,28.27
2018-10-16T14:34:11.821Z,29.63
2018-10-16T14:36:40.213Z,28.43
2018-10-16T14:39:10.503Z,27.60
2018-10-16T14:41:38.873Z,27.30
2018-10-16T14:44:07.867Z,27.80
2018-10-16T14:46:36.545Z,28.60
2018-10-16T14:49:05.317Z,26.83
2018-10-16T14:51:34.739Z,27.50
2018-10-16T14:54:03.597Z,26.60
2018-10-16T14:56:32.720Z,27.43
2018-10-16T14:59:01.141Z,26.97
2018-10-16T15:01:29.761Z,26.17
2018-10-16T15:03:58.242Z,27.33
2018-10-16T15:06:27.034Z,26.60
2018-10-16T15:08:55.809Z,26.03
2018-10-16T15:11:25.223Z,26.33
2018-10-16T15:14:00.281Z,26.30
2018-10-16T15:16:29.160Z,28.00
2018-10-16T15:21:46.900Z,25.97
2018-10-16T15:24:15.220Z,26.03
2018-10-16T15:26:43.676Z,27.53
2018-10-16T15:29:12.410Z,27.50
2018-10-16T15:31:42.496Z,27.23
2018-10-16T15:34:11.065Z,26.80
2018-10-16T15:36:39.782Z,26.20
2018-10-16T15:39:11.121Z,27.50
2018-10-16T15:41:39.772Z,28.70
2018-10-16T15:44:09.019Z,26.23
2018-10-16T15:46:38.300Z,29.07
2018-10-16T15:50:42.615Z,28.17
2018-10-16T15:53:11.743Z,29.33
2018-10-16T15:58:37.676Z,28.87
2018-10-16T16:01:06.188Z,27.63
2018-10-16T16:03:35.328Z,25.70
2018-10-16T16:06:10.917Z,28.23
2018-10-16T16:08:45.251Z,31.40
2018-10-16T16:11:13.993Z,28.27
2018-10-16T16:13:58.163Z,27.00
2018-10-16T16:16:40.286Z,27.23
2018-10-16T16:23:08.142Z,29.83
2018-10-16T16:25:41.270Z,30.23
2018-10-16T16:28:41.603Z,30.57
2018-10-16T16:31:23.991Z,49.73
2018-10-16T16:34:15.967Z,31.70
2018-10-16T16:36:44.416Z,35.03
2018-10-16T16:39:18.045Z,35.77
2018-10-16T16:41:47.835Z,33.50
2018-10-16T16:44:16.372Z,34.13
2018-10-16T16:46:45.038Z,33.70
2018-10-16T16:49:25.489Z,41.07
2018-10-16T16:51:54.078Z,40.63
2018-10-16T16:54:22.739Z,33.73
2018-10-16T16:56:51.373Z,35.83
2018-10-16T16:59:19.702Z,39.73
2018-10-16T17:10:31.737Z,34.97
2018-10-16T17:13:00.343Z,34.13
2018-10-16T17:15:42.781Z,33.43
2018-10-16T17:22:25.957Z,34.83
2018-10-16T17:29:03.163Z,33.30
2018-10-16T17:37:19.429Z,33.20
2018-10-16T17:39:47.613Z,32.30
2018-10-16T17:42:15.864Z,32.47
2018-10-16T17:44:46.112Z,33.33
2018-10-16T17:47:14.353Z,31.83
2018-10-16T17:49:42.587Z,30.53
2018-10-16T17:52:11.531Z,32.30
2018-10-16T17:57:30.845Z,31.13
2018-10-16T18:00:00.167Z,30.97
2018-10-16T18:03:17.687Z,30.57
2018-10-16T18:06:04.625Z,31.80
2018-10-16T18:12:03.060Z,33.63
2018-10-16T18:15:18.721Z,33.60
2018-10-16T18:30:40.148Z,34.57
2018-10-16T18:33:42.110Z,35.00
2018-10-16T18:38:47.749Z,34.43
2018-10-16T18:41:16.533Z,34.50
2018-10-16T18:49:46.842Z,35.47
2018-10-16T18:52:15.505Z,34.70
2018-10-16T18:54:44.404Z,34.47
2018-10-16T19:00:15.126Z,34.30
2018-10-16T19:03:11.928Z,33.87
2018-10-16T19:08:25.429Z,35.77
2018-10-16T19:53:48.283Z,34.60
2018-10-16T19:56:16.961Z,35.27
2018-10-16T19:58:45.600Z,35.20
2018-10-16T20:01:14.118Z,33.23
2018-10-16T20:03:42.832Z,36.33
2018-10-16T20:06:11.361Z,37.17
2018-10-16T20:08:40.075Z,36.23
2018-10-16T20:11:08.863Z,35.77
2018-10-16T20:13:37.410Z,34.53
2018-10-16T20:16:06.149Z,36.27
2018-10-16T20:18:34.715Z,35.17
2018-10-16T20:21:03.278Z,35.27
2018-10-16T20:23:31.755Z,35.67
2018-10-16T20:26:00.149Z,35.60
2018-10-16T20:28:28.647Z,35.47
2018-10-16T20:30:57.096Z,36.43
2018-10-16T20:33:25.669Z,36.80
2018-10-16T20:35:54.194Z,36.53
2018-10-16T20:38:22.799Z,37.67
2018-10-16T20:40:51.328Z,38.20
2018-10-16T20:43:19.945Z,35.20
2018-10-16T20:45:48.494Z,33.23
2018-10-16T20:48:17.364Z,36.80
2018-10-16T20:50:45.959Z,36.57
2018-10-16T20:53:14.477Z,36.67
2018-10-16T20:55:43.072Z,35.90
2018-10-16T20:58:11.569Z,36.17
2018-10-16T21:00:40.951Z,33.93
2018-10-16T21:03:09.663Z,33.77
2018-10-16T21:05:38.408Z,35.13
2018-10-16T21:08:06.885Z,36.37
2018-10-16T21:10:35.390Z,35.13
2018-10-16T21:13:03.899Z,35.83
2018-10-16T21:15:32.397Z,36.03
2018-10-16T21:18:01.050Z,34.73
2018-10-16T21:20:29.586Z,39.60
2018-10-16T21:22:58.178Z,36.93
2018-10-16T21:25:26.511Z,34.60
2018-10-16T21:27:54.769Z,35.83
2018-10-16T21:30:23.110Z,33.87
2018-10-16T21:32:51.427Z,33.23
2018-10-16T21:35:19.668Z,34.00
2018-10-16T21:37:48.043Z,33.30
2018-10-16T21:40:16.353Z,35.50
2018-10-16T21:42:44.541Z,34.87
2018-10-16T21:45:12.824Z,34.23
2018-10-16T21:47:41.042Z,34.90
2018-10-16T21:50:09.279Z,36.83
2018-10-16T21:52:37.574Z,35.10
2018-10-16T21:55:06.928Z,33.33
2018-10-16T21:57:35.190Z,33.97
2018-10-16T22:00:03.530Z,33.37
2018-10-16T22:02:37.218Z,32.73
2018-10-16T22:05:05.682Z,32.10
2018-10-16T22:07:34.068Z,33.97
2018-10-16T22:10:02.602Z,33.57
2018-10-16T22:12:30.797Z,35.77
2018-10-16T22:14:59.082Z,34.23
2018-10-16T22:17:27.483Z,34.60
2018-10-16T22:19:56.147Z,33.53
2018-10-16T22:22:24.363Z,31.17
2018-10-16T22:24:52.796Z,34.63
2018-10-16T22:27:20.998Z,36.47
2018-10-16T22:29:49.173Z,34.27
2018-10-16T22:32:18.049Z,34.40
2018-10-16T22:34:46.816Z,33.27
2018-10-16T22:37:15.054Z,34.03
2018-10-16T22:39:43.771Z,35.57
2018-10-16T22:42:12.360Z,40.03
2018-10-16T22:44:40.560Z,37.10
2018-10-16T22:47:08.895Z,35.13
2018-10-16T22:49:37.077Z,35.47
2018-10-16T22:52:05.638Z,32.63
2018-10-16T22:54:33.817Z,33.97
2018-10-16T22:57:01.970Z,34.67
2018-10-16T22:59:30.162Z,34.20
2018-10-16T23:01:58.371Z,33.47
2018-10-16T23:04:26.578Z,33.23
2018-10-16T23:06:54.774Z,36.60
2018-10-16T23:09:22.967Z,42.40
2018-10-16T23:11:51.307Z,44.27
2018-10-16T23:14:19.491Z,43.30
2018-10-16T23:16:47.789Z,46.13
2018-10-16T23:19:16.009Z,42.90
2018-10-16T23:21:44.108Z,41.90
2018-10-16T23:24:12.312Z,40.90
2018-10-16T23:26:40.471Z,41.57
2018-10-16T23:29:08.745Z,41.03
2018-10-16T23:31:37.108Z,43.00
2018-10-16T23:34:05.632Z,45.30
2018-10-16T23:36:33.836Z,44.30
2018-10-16T23:39:02.025Z,43.53
2018-10-16T23:41:30.224Z,41.20
2018-10-16T23:43:58.460Z,41.67
2018-10-16T23:46:26.683Z,40.97
2018-10-16T23:48:54.837Z,39.93
2018-10-16T23:51:22.985Z,38.53
2018-10-16T23:53:51.248Z,46.00
2018-10-16T23:56:19.494Z,47.07
2018-10-16T23:58:47.665Z,45.40
